Time;durP1;ratioP1;P1;durP2;ratioP2;P2;SDS_P1;SDS_P2;PMS_P1;PMS_P2;Temp;Humidity;BMP_temperature;BMP_pressure;BME280_temperature;BME280_humidity;BME280_pressure;Samples;Min_cycle;Max_cycle;Signal;HPM_P1;HPM_P2
2023/04/08 00:01:15;;;;;;;10.10;5.88;;;;;;;;;;5025698;28;20075;-74
2023/04/08 00:03:41;;;;;;;11.43;5.22;;;;;;;;;;5025032;28;20033;-74
2023/04/08 00:06:07;;;;;;;11.68;5.43;;;;;;;;;;5025580;28;20057;-73
2023/04/08 00:08:33;;;;;;;10.32;5.35;;;;;;;;;;5024781;28;20049;-73
2023/04/08 00:11:00;;;;;;;14.32;6.00;;;;;;;;;;5025504;28;20046;-73
2023/04/08 00:13:26;;;;;;;9.85;5.88;;;;;;;;;;5024850;28;20054;-73
2023/04/08 00:15:52;;;;;;;10.13;6.03;;;;;;;;;;5025427;28;20038;-73
2023/04/08 00:18:18;;;;;;;11.68;5.72;;;;;;;;;;5025150;28;20052;-73
2023/04/08 00:20:45;;;;;;;10.75;5.57;;;;;;;;;;5024780;28;20050;-73
2023/04/08 00:23:11;;;;;;;14.27;5.78;;;;;;;;;;5025317;28;20071;-72
2023/04/08 00:25:37;;;;;;;11.93;5.95;;;;;;;;;;5025145;28;20543;-72
2023/04/08 00:28:03;;;;;;;7.80;5.20;;;;;;;;;;5024238;28;20045;-73
2023/04/08 00:30:30;;;;;;;8.93;5.00;;;;;;;;;;5024065;28;20057;-73
2023/04/08 00:32:56;;;;;;;11.98;5.68;;;;;;;;;;5025078;28;20076;-72
2023/04/08 00:35:23;;;;;;;10.50;5.47;;;;;;;;;;5024957;28;20088;-74
2023/04/08 00:37:50;;;;;;;12.48;6.07;;;;;;;;;;5024628;28;20056;-73
2023/04/08 00:40:16;;;;;;;10.75;5.60;;;;;;;;;;5024916;28;20095;-74
2023/04/08 00:42:42;;;;;;;10.15;5.80;;;;;;;;;;5024249;28;20037;-74
2023/04/08 00:45:09;;;;;;;11.00;5.95;;;;;;;;;;5021024;28;20042;-74
2023/04/08 00:47:35;;;;;;;9.57;5.90;;;;;;;;;;5020269;28;20049;-64
2023/04/08 00:50:01;;;;;;;13.25;6.13;;;;;;;;;;5024606;28;20275;-73
2023/04/08 00:52:28;;;;;;;14.68;6.25;;;;;;;;;;5024816;28;20049;-72
2023/04/08 00:54:55;;;;;;;9.60;5.25;;;;;;;;;;5024780;28;20045;-72
2023/04/08 00:57:21;;;;;;;9.55;5.40;;;;;;;;;;5024738;28;20479;-73
2023/04/08 00:59:47;;;;;;;10.73;5.28;;;;;;;;;;5009936;28;20521;-72
2023/04/08 01:02:17;;;;;;;16.27;6.50;;;;;;;;;;5024201;28;20705;-73
2023/04/08 01:04:55;;;;;;;10.65;5.80;;;;;;;;;;5082436;22;20056;-60
2023/04/08 01:07:31;;;;;;;15.30;6.05;;;;;;;;;;4989200;28;20042;-60
2023/04/08 01:10:01;;;;;;;12.40;6.70;;;;;;;;;;4999477;28;20056;-60
2023/04/08 01:12:30;;;;;;;11.52;6.18;;;;;;;;;;5003592;28;20100;-60
2023/04/08 01:15:02;;;;;;;16.00;6.80;;;;;;;;;;5003561;28;20050;-59
2023/04/08 01:17:29;;;;;;;10.00;5.85;;;;;;;;;;5004313;28;20121;-60
2023/04/08 01:19:58;;;;;;;12.32;6.32;;;;;;;;;;5004595;28;20054;-59
2023/04/08 01:22:42;;;;;;;10.05;6.15;;;;;;;;;;5004531;28;20077;-58
2023/04/08 01:25:15;;;;;;;12.48;6.32;;;;;;;;;;4992489;28;20054;-59
2023/04/08 01:27:42;;;;;;;12.10;6.45;;;;;;;;;;5003302;28;20082;-58
2023/04/08 01:30:09;;;;;;;14.82;6.63;;;;;;;;;;5004073;28;20104;-59
2023/04/08 01:35:48;;;;;;;14.98;5.97;;;;;;;;;;4989218;28;20134;-59
2023/04/08 01:38:16;;;;;;;13.45;6.65;;;;;;;;;;5001624;28;20072;-58
2023/04/08 01:40:44;;;;;;;13.30;7.32;;;;;;;;;;5003674;28;20040;-58
2023/04/08 01:43:11;;;;;;;14.35;6.82;;;;;;;;;;5008150;28;20407;-58
2023/04/08 01:45:37;;;;;;;12.75;7.40;;;;;;;;;;5010463;28;20048;-59
2023/04/08 01:48:03;;;;;;;12.45;7.10;;;;;;;;;;5010681;28;20055;-58
2023/04/08 01:50:30;;;;;;;17.02;7.68;;;;;;;;;;5011269;28;20042;-58
2023/04/08 01:52:57;;;;;;;13.05;7.43;;;;;;;;;;5010592;28;20463;-58
2023/04/08 01:55:24;;;;;;;14.18;7.38;;;;;;;;;;5010760;28;20046;-61
2023/04/08 01:57:52;;;;;;;15.68;7.35;;;;;;;;;;5009837;28;20056;-58
2023/04/08 02:00:19;;;;;;;12.80;7.25;;;;;;;;;;5009421;28;20090;-59
2023/04/08 02:02:46;;;;;;;14.63;8.17;;;;;;;;;;5010453;28;20089;-58
2023/04/08 02:05:13;;;;;;;14.63;7.07;;;;;;;;;;5010251;28;20065;-58
2023/04/08 02:07:39;;;;;;;16.60;7.78;;;;;;;;;;5009994;28;20048;-59
2023/04/08 02:10:06;;;;;;;13.18;8.13;;;;;;;;;;5010694;28;20526;-58
2023/04/08 02:12:33;;;;;;;12.85;7.78;;;;;;;;;;5009368;28;21323;-58
2023/04/08 02:14:59;;;;;;;12.80;8.23;;;;;;;;;;5010226;28;20050;-59
2023/04/08 02:17:33;;;;;;;14.00;8.02;;;;;;;;;;5009658;28;20077;-59
2023/04/08 02:20:05;;;;;;;14.68;8.52;;;;;;;;;;5010324;28;20045;-59
2023/04/08 02:22:38;;;;;;;14.68;8.75;;;;;;;;;;5010160;28;20049;-59
2023/04/08 02:25:07;;;;;;;15.90;8.48;;;;;;;;;;5010109;28;20056;-59
2023/04/08 02:27:34;;;;;;;16.13;8.63;;;;;;;;;;5009546;28;20068;-59
2023/04/08 02:30:03;;;;;;;17.25;8.25;;;;;;;;;;5008485;28;20046;-59
2023/04/08 02:32:30;;;;;;;18.35;8.52;;;;;;;;;;5010241;28;20045;-59
2023/04/08 02:34:57;;;;;;;15.95;8.95;;;;;;;;;;5009536;28;20053;-59
2023/04/08 02:37:23;;;;;;;15.35;8.75;;;;;;;;;;5010283;28;20546;-58
2023/04/08 02:39:50;;;;;;;17.17;8.63;;;;;;;;;;5010305;28;20089;-58
2023/04/08 02:42:16;;;;;;;14.98;8.32;;;;;;;;;;5009820;28;20403;-58
2023/04/08 02:44:42;;;;;;;16.33;9.45;;;;;;;;;;5008535;28;20103;-59
2023/04/08 02:47:08;;;;;;;14.68;8.55;;;;;;;;;;5010138;28;20046;-59
2023/04/08 02:49:34;;;;;;;17.58;9.15;;;;;;;;;;5009464;28;20073;-58
2023/04/08 02:52:00;;;;;;;17.80;9.02;;;;;;;;;;5009965;28;20550;-59
2023/04/08 02:54:26;;;;;;;15.95;9.07;;;;;;;;;;5006189;28;20034;-59
2023/04/08 02:56:52;;;;;;;22.10;10.45;;;;;;;;;;5007238;28;20053;-59
2023/04/08 02:59:18;;;;;;;16.25;8.82;;;;;;;;;;5006235;28;20406;-59
2023/04/08 03:01:44;;;;;;;15.30;8.68;;;;;;;;;;5006748;28;20054;-59
2023/04/08 03:04:11;;;;;;;16.02;9.40;;;;;;;;;;5006683;28;20080;-59
2023/04/08 03:06:37;;;;;;;16.13;9.75;;;;;;;;;;5006482;28;20050;-59
2023/04/08 03:09:04;;;;;;;19.55;10.70;;;;;;;;;;5006182;28;20050;-58
2023/04/08 03:11:31;;;;;;;30.25;9.73;;;;;;;;;;5006735;28;20049;-58
2023/04/08 03:13:57;;;;;;;17.00;9.00;;;;;;;;;;5005510;28;20065;-59
2023/04/08 03:16:23;;;;;;;18.42;9.88;;;;;;;;;;5007486;28;20050;-58
2023/04/08 03:18:50;;;;;;;20.67;10.10;;;;;;;;;;5006187;28;20045;-58
2023/04/08 03:21:16;;;;;;;18.83;9.85;;;;;;;;;;5006574;28;20049;-57
2023/04/08 03:23:42;;;;;;;17.58;9.40;;;;;;;;;;5006306;28;20406;-58
2023/04/08 03:26:09;;;;;;;15.88;8.82;;;;;;;;;;5005800;28;20065;-58
2023/04/08 03:28:35;;;;;;;16.27;9.73;;;;;;;;;;5005621;28;20050;-62
2023/04/08 03:31:02;;;;;;;17.63;10.32;;;;;;;;;;5006474;28;20052;-59
2023/04/08 03:33:29;;;;;;;19.65;10.60;;;;;;;;;;5006452;28;20042;-60
2023/04/08 03:35:55;;;;;;;19.27;10.73;;;;;;;;;;5006164;28;20053;-61
2023/04/08 03:38:21;;;;;;;18.45;10.73;;;;;;;;;;5006514;28;20120;-59
2023/04/08 03:40:47;;;;;;;19.25;9.98;;;;;;;;;;5005888;28;20042;-59
2023/04/08 03:43:14;;;;;;;17.98;10.02;;;;;;;;;;5005442;28;20426;-59
2023/04/08 03:45:40;;;;;;;18.65;10.27;;;;;;;;;;5005424;28;20131;-58
2023/04/08 03:48:07;;;;;;;19.10;11.23;;;;;;;;;;5006181;28;20038;-58
2023/04/08 03:50:33;;;;;;;21.13;10.95;;;;;;;;;;5005812;28;20042;-58
2023/04/08 03:52:59;;;;;;;19.85;12.00;;;;;;;;;;5005814;28;20041;-59
2023/04/08 03:55:25;;;;;;;19.77;11.05;;;;;;;;;;5006102;28;20404;-59
2023/04/08 03:57:51;;;;;;;18.67;11.18;;;;;;;;;;5005535;28;20069;-58
2023/04/08 04:00:18;;;;;;;20.48;10.10;;;;;;;;;;5004534;28;20046;-59
2023/04/08 04:02:44;;;;;;;21.83;10.73;;;;;;;;;;5005539;28;20042;-58
2023/04/08 04:05:10;;;;;;;19.40;10.50;;;;;;;;;;5004379;28;20058;-58
2023/04/08 04:07:36;;;;;;;19.38;10.63;;;;;;;;;;5005249;28;20121;-58
2023/04/08 04:10:02;;;;;;;19.38;11.10;;;;;;;;;;5006124;28;20038;-58
2023/04/08 04:12:29;;;;;;;20.27;11.35;;;;;;;;;;5004375;28;20094;-59
2023/04/08 04:14:55;;;;;;;22.60;11.60;;;;;;;;;;5005721;28;20060;-62
2023/04/08 04:17:22;;;;;;;23.10;11.27;;;;;;;;;;5005557;28;20056;-58
2023/04/08 04:19:48;;;;;;;20.80;10.95;;;;;;;;;;5005061;28;20041;-58
2023/04/08 04:22:14;;;;;;;20.67;11.13;;;;;;;;;;5005094;28;20038;-58
2023/04/08 04:24:41;;;;;;;20.33;10.73;;;;;;;;;;5004870;28;20045;-58
2023/04/08 04:27:07;;;;;;;20.27;10.13;;;;;;;;;;5004604;28;20053;-60
2023/04/08 04:29:33;;;;;;;19.63;11.10;;;;;;;;;;5005288;28;20105;-58
2023/04/08 04:31:59;;;;;;;20.70;11.10;;;;;;;;;;5004947;28;20092;-58
2023/04/08 04:34:25;;;;;;;18.63;10.30;;;;;;;;;;5005618;28;20472;-58
2023/04/08 04:36:51;;;;;;;25.50;12.20;;;;;;;;;;5005378;28;20049;-58
2023/04/08 04:39:17;;;;;;;26.55;12.35;;;;;;;;;;5004913;28;20056;-59
2023/04/08 04:41:43;;;;;;;22.33;11.10;;;;;;;;;;5004817;28;20061;-58
2023/04/08 04:44:10;;;;;;;19.20;10.52;;;;;;;;;;5003377;28;20042;-59
2023/04/08 04:46:36;;;;;;;20.70;11.98;;;;;;;;;;5004769;28;20488;-58
2023/04/08 04:49:02;;;;;;;22.55;11.52;;;;;;;;;;5004567;28;20120;-58
2023/04/08 04:51:31;;;;;;;19.77;10.27;;;;;;;;;;5004974;28;20076;-59
2023/04/08 04:53:57;;;;;;;25.33;11.80;;;;;;;;;;5004048;28;20488;-59
2023/04/08 04:56:25;;;;;;;22.77;11.45;;;;;;;;;;5005024;28;20042;-58
2023/04/08 04:58:51;;;;;;;24.30;11.05;;;;;;;;;;5004023;28;20124;-58
2023/04/08 05:01:17;;;;;;;27.88;11.88;;;;;;;;;;5003974;28;20454;-59
2023/04/08 05:03:43;;;;;;;20.35;10.95;;;;;;;;;;5003763;28;20237;-58
2023/04/08 05:06:10;;;;;;;20.52;10.48;;;;;;;;;;5004784;28;20050;-59
2023/04/08 05:08:36;;;;;;;20.25;10.65;;;;;;;;;;5003764;28;20046;-59
2023/04/08 05:11:02;;;;;;;21.58;10.73;;;;;;;;;;5004489;28;20050;-59
2023/04/08 05:13:29;;;;;;;18.63;10.10;;;;;;;;;;5003274;28;20052;-58
2023/04/08 05:15:55;;;;;;;20.55;10.82;;;;;;;;;;5004558;28;20041;-59
2023/04/08 05:18:21;;;;;;;18.95;10.90;;;;;;;;;;5004133;28;20045;-60
2023/04/08 05:20:47;;;;;;;18.92;10.48;;;;;;;;;;5003792;28;20482;-60
2023/04/08 05:23:14;;;;;;;20.23;10.63;;;;;;;;;;5002900;28;20057;-60
2023/04/08 05:25:40;;;;;;;22.02;10.57;;;;;;;;;;5004381;28;20132;-60
2023/04/08 05:28:06;;;;;;;19.02;10.00;;;;;;;;;;5004192;28;20092;-60
2023/04/08 05:30:32;;;;;;;21.35;11.20;;;;;;;;;;5003448;28;20122;-60
2023/04/08 05:32:59;;;;;;;19.55;10.73;;;;;;;;;;5004154;28;20522;-61
2023/04/08 05:35:25;;;;;;;21.75;11.13;;;;;;;;;;5000744;28;20430;-60
2023/04/08 05:37:51;;;;;;;19.95;10.45;;;;;;;;;;5003093;28;20095;-60
2023/04/08 05:40:20;;;;;;;23.08;11.60;;;;;;;;;;5003228;28;20046;-61
2023/04/08 05:42:48;;;;;;;21.20;10.73;;;;;;;;;;5001232;28;20041;-60
2023/04/08 05:45:15;;;;;;;18.55;10.40;;;;;;;;;;5001785;28;20046;-60
2023/04/08 05:47:41;;;;;;;20.88;11.75;;;;;;;;;;5001789;28;20057;-60
2023/04/08 05:50:07;;;;;;;22.25;11.65;;;;;;;;;;5002360;28;20049;-60
2023/04/08 05:52:34;;;;;;;23.77;12.02;;;;;;;;;;5003406;28;20053;-60
2023/04/08 05:55:00;;;;;;;25.05;11.88;;;;;;;;;;5003444;28;20050;-60
2023/04/08 05:57:26;;;;;;;25.15;12.23;;;;;;;;;;5003182;28;20175;-61
2023/04/08 05:59:52;;;;;;;24.20;13.60;;;;;;;;;;5018468;28;20045;-60
2023/04/08 06:02:18;;;;;;;21.55;11.85;;;;;;;;;;5003639;28;20381;-60
2023/04/08 06:04:45;;;;;;;23.15;11.60;;;;;;;;;;5002934;28;20068;-60
2023/04/08 06:07:11;;;;;;;22.55;11.32;;;;;;;;;;5002912;28;20057;-60
2023/04/08 06:09:37;;;;;;;28.55;13.77;;;;;;;;;;5003172;28;20533;-60
2023/04/08 06:12:04;;;;;;;24.77;13.40;;;;;;;;;;5001910;28;20407;-60
2023/04/08 06:14:30;;;;;;;30.80;16.23;;;;;;;;;;5003013;28;20499;-60
2023/04/08 06:16:56;;;;;;;25.90;13.45;;;;;;;;;;5003631;28;20097;-61
2023/04/08 06:19:23;;;;;;;24.50;13.63;;;;;;;;;;5003040;28;20057;-60
2023/04/08 06:21:50;;;;;;;29.13;12.98;;;;;;;;;;5002953;28;20068;-60
2023/04/08 06:24:16;;;;;;;25.90;12.73;;;;;;;;;;5002646;28;20050;-60
2023/04/08 06:26:42;;;;;;;26.67;14.68;;;;;;;;;;5002284;28;20060;-61
2023/04/08 06:29:09;;;;;;;26.60;12.90;;;;;;;;;;5004320;28;20400;-61
2023/04/08 06:31:35;;;;;;;31.25;17.25;;;;;;;;;;5006857;28;20042;-61
2023/04/08 06:34:01;;;;;;;30.95;14.07;;;;;;;;;;5007124;28;20406;-61
2023/04/08 06:36:27;;;;;;;35.15;17.92;;;;;;;;;;5006714;28;20046;-61
2023/04/08 06:38:53;;;;;;;31.05;14.68;;;;;;;;;;5006444;28;20052;-60
2023/04/08 06:41:19;;;;;;;25.73;12.95;;;;;;;;;;5006606;28;20042;-61
2023/04/08 06:43:46;;;;;;;27.95;14.10;;;;;;;;;;5006108;28;20049;-61
2023/04/08 06:46:12;;;;;;;29.13;14.57;;;;;;;;;;5021599;28;20050;-60
2023/04/08 06:48:39;;;;;;;63.17;33.00;;;;;;;;;;5006332;28;20073;-61
2023/04/08 06:51:06;;;;;;;28.10;14.55;;;;;;;;;;5005897;28;20113;-60
2023/04/08 06:53:32;;;;;;;28.98;13.15;;;;;;;;;;5003031;28;20056;-56
2023/04/08 06:55:59;;;;;;;28.88;13.82;;;;;;;;;;5005910;28;20042;-58
2023/04/08 06:58:25;;;;;;;32.10;14.25;;;;;;;;;;5005856;28;20476;-57
2023/04/08 07:00:53;;;;;;;50.75;16.75;;;;;;;;;;5004339;28;20058;-57
2023/04/08 07:03:20;;;;;;;31.15;14.85;;;;;;;;;;5003392;28;20041;-58
2023/04/08 07:05:47;;;;;;;33.38;17.08;;;;;;;;;;5005337;28;20416;-58
2023/04/08 07:08:13;;;;;;;29.10;15.32;;;;;;;;;;5005776;28;20439;-58
2023/04/08 07:10:39;;;;;;;30.35;14.10;;;;;;;;;;5005703;28;20117;-58
2023/04/08 07:13:05;;;;;;;44.92;26.88;;;;;;;;;;5005577;28;20034;-57
2023/04/08 07:15:31;;;;;;;46.25;28.67;;;;;;;;;;5003563;28;20050;-57
2023/04/08 07:17:58;;;;;;;37.47;20.52;;;;;;;;;;5002148;28;20033;-58
2023/04/08 07:20:25;;;;;;;32.10;16.98;;;;;;;;;;5003172;28;20041;-57
2023/04/08 07:22:51;;;;;;;35.35;18.38;;;;;;;;;;5004343;28;20046;-58
2023/04/08 07:25:17;;;;;;;30.38;15.52;;;;;;;;;;5005954;28;20046;-58
2023/04/08 07:27:43;;;;;;;29.13;15.40;;;;;;;;;;5003704;28;20065;-57
2023/04/08 07:30:09;;;;;;;27.15;14.55;;;;;;;;;;5006390;28;20081;-57
2023/04/08 07:32:36;;;;;;;30.13;15.45;;;;;;;;;;5006077;28;20096;-57
2023/04/08 07:35:02;;;;;;;28.23;15.07;;;;;;;;;;5006431;28;20118;-57
2023/04/08 07:37:28;;;;;;;28.17;15.65;;;;;;;;;;5005662;28;20042;-57
2023/04/08 07:39:54;;;;;;;23.98;12.65;;;;;;;;;;5004401;28;20093;-57
2023/04/08 07:42:21;;;;;;;23.15;12.93;;;;;;;;;;5006059;28;20034;-57
2023/04/08 07:44:47;;;;;;;26.95;13.50;;;;;;;;;;5006009;28;20501;-57
2023/04/08 07:47:13;;;;;;;23.75;12.55;;;;;;;;;;5006765;28;20137;-57
2023/04/08 07:49:40;;;;;;;24.00;12.60;;;;;;;;;;5006332;28;20053;-57
2023/04/08 07:52:06;;;;;;;25.05;13.85;;;;;;;;;;5006389;28;20088;-57
2023/04/08 07:54:34;;;;;;;28.85;14.70;;;;;;;;;;5005895;28;20045;-57
2023/04/08 07:57:01;;;;;;;94.57;41.13;;;;;;;;;;5001403;28;20038;-58
2023/04/08 07:59:27;;;;;;;94.60;47.40;;;;;;;;;;5006131;28;20058;-59
2023/04/08 08:01:53;;;;;;;58.95;31.00;;;;;;;;;;5006381;28;20053;-57
2023/04/08 08:04:19;;;;;;;27.77;14.98;;;;;;;;;;5005817;28;20116;-57
2023/04/08 08:06:46;;;;;;;27.67;15.38;;;;;;;;;;5021283;28;20050;-57
2023/04/08 08:09:13;;;;;;;25.88;14.25;;;;;;;;;;5004608;28;20492;-58
2023/04/08 08:11:39;;;;;;;27.02;14.40;;;;;;;;;;5003725;28;20038;-59
2023/04/08 08:14:06;;;;;;;30.05;17.17;;;;;;;;;;5004088;28;20069;-57
2023/04/08 08:16:32;;;;;;;22.92;13.43;;;;;;;;;;5004759;28;20449;-57
2023/04/08 08:18:59;;;;;;;22.48;12.43;;;;;;;;;;5003535;28;20046;-58
2023/04/08 08:21:25;;;;;;;27.35;14.48;;;;;;;;;;5005081;28;20116;-58
2023/04/08 08:23:53;;;;;;;25.63;13.63;;;;;;;;;;5004508;28;20462;-58
2023/04/08 08:26:20;;;;;;;22.17;12.00;;;;;;;;;;5004102;28;20597;-57
2023/04/08 08:28:46;;;;;;;24.98;13.10;;;;;;;;;;5001361;28;20042;-58
2023/04/08 08:31:12;;;;;;;23.98;13.25;;;;;;;;;;5004925;28;20045;-58
2023/04/08 08:33:38;;;;;;;21.60;11.70;;;;;;;;;;5004466;28;20518;-58
2023/04/08 08:36:06;;;;;;;23.38;12.02;;;;;;;;;;5004456;28;20103;-57
2023/04/08 08:38:32;;;;;;;23.98;13.57;;;;;;;;;;5003515;28;20410;-58
2023/04/08 08:40:59;;;;;;;18.42;10.15;;;;;;;;;;5004050;28;20050;-57
2023/04/08 08:43:25;;;;;;;23.25;13.10;;;;;;;;;;5002789;28;20100;-58
2023/04/08 08:45:52;;;;;;;25.65;11.40;;;;;;;;;;5004287;28;20049;-58
2023/04/08 08:48:18;;;;;;;23.90;10.77;;;;;;;;;;5004427;28;20042;-58
2023/04/08 08:50:44;;;;;;;23.42;11.88;;;;;;;;;;5004200;28;20133;-58
2023/04/08 08:53:11;;;;;;;24.27;12.00;;;;;;;;;;5003645;28;20133;-58
2023/04/08 08:55:38;;;;;;;27.58;13.73;;;;;;;;;;5019241;28;20041;-58
2023/04/08 08:58:06;;;;;;;24.13;11.88;;;;;;;;;;5003200;28;20125;-58
2023/04/08 09:00:32;;;;;;;20.83;12.53;;;;;;;;;;4999822;28;20105;-58
2023/04/08 09:03:13;;;;;;;21.70;12.77;;;;;;;;;;5003536;28;20068;-58
2023/04/08 09:05:47;;;;;;;20.98;11.15;;;;;;;;;;5003504;28;20523;-58
2023/04/08 09:08:23;;;;;;;20.90;11.13;;;;;;;;;;5003892;28;20069;-58
2023/04/08 09:10:49;;;;;;;21.40;11.32;;;;;;;;;;5002603;28;20046;-58
2023/04/08 09:13:15;;;;;;;22.40;11.23;;;;;;;;;;5003196;28;20042;-57
2023/04/08 09:16:02;;;;;;;22.48;11.07;;;;;;;;;;5003560;28;20041;-58
2023/04/08 09:18:29;;;;;;;21.75;11.13;;;;;;;;;;5003406;28;20050;-58
2023/04/08 09:20:55;;;;;;;19.65;11.60;;;;;;;;;;5002539;28;20049;-58
2023/04/08 09:23:21;;;;;;;23.20;12.05;;;;;;;;;;5003663;28;20045;-58
2023/04/08 09:25:47;;;;;;;22.17;11.05;;;;;;;;;;5003813;28;20282;-58
2023/04/08 09:28:22;;;;;;;19.73;11.35;;;;;;;;;;5002799;28;20454;-58
2023/04/08 09:30:48;;;;;;;20.30;11.13;;;;;;;;;;5003570;28;20392;-58
2023/04/08 09:33:15;;;;;;;22.15;12.02;;;;;;;;;;5004002;28;20408;-58
2023/04/08 09:35:42;;;;;;;21.48;11.95;;;;;;;;;;5000152;28;20707;-58
2023/04/08 09:38:08;;;;;;;21.58;12.18;;;;;;;;;;5003172;28;20048;-58
2023/04/08 09:40:35;;;;;;;19.48;10.93;;;;;;;;;;5003114;28;20041;-58
2023/04/08 09:43:04;;;;;;;22.23;11.52;;;;;;;;;;5002294;28;20042;-58
2023/04/08 09:45:33;;;;;;;20.80;11.38;;;;;;;;;;5003845;28;20077;-58
2023/04/08 09:47:59;;;;;;;;;;;;;;;;;;5003697;28;20396;-59
2023/04/08 09:50:30;;;;;;;19.98;11.20;;;;;;;;;;5004042;28;19921;-58
2023/04/08 09:53:01;;;;;;;21.73;11.73;;;;;;;;;;5003457;28;20050;-58
2023/04/08 09:55:31;;;;;;;21.75;11.15;;;;;;;;;;5003879;28;20496;-59
2023/04/08 09:58:01;;;;;;;23.85;11.27;;;;;;;;;;5002823;28;20050;-58
2023/04/08 10:00:30;;;;;;;19.67;10.95;;;;;;;;;;5003689;28;20053;-61
2023/04/08 10:03:04;;;;;;;21.17;12.10;;;;;;;;;;5003831;28;20046;-58
2023/04/08 10:05:31;;;;;;;18.75;10.32;;;;;;;;;;5002422;28;20057;-59
2023/04/08 10:07:57;;;;;;;17.60;10.45;;;;;;;;;;5006484;28;20046;-61
2023/04/08 10:10:23;;;;;;;17.83;10.35;;;;;;;;;;5007517;28;20404;-58
2023/04/08 10:12:50;;;;;;;19.30;10.98;;;;;;;;;;5005463;28;20088;-58
2023/04/08 10:15:24;;;;;;;19.15;11.27;;;;;;;;;;5007925;28;20046;-58
2023/04/08 10:17:51;;;;;;;20.25;10.77;;;;;;;;;;4996536;28;20053;-58
2023/04/08 10:20:41;;;;;;;18.08;10.52;;;;;;;;;;5009077;28;20151;-58
2023/04/08 10:23:08;;;;;;;19.17;10.02;;;;;;;;;;5006118;28;20052;-59
2023/04/08 10:25:34;;;;;;;16.75;9.93;;;;;;;;;;5008261;28;20046;-58
2023/04/08 10:28:11;;;;;;;25.08;11.55;;;;;;;;;;5006883;28;20045;-58
2023/04/08 10:30:47;;;;;;;18.20;11.60;;;;;;;;;;5007704;28;20512;-58
2023/04/08 10:33:15;;;;;;;19.13;11.30;;;;;;;;;;4991769;28;20049;-58
2023/04/08 10:35:45;;;;;;;15.43;10.18;;;;;;;;;;5003005;28;20046;-59
2023/04/08 10:38:12;;;;;;;17.30;9.60;;;;;;;;;;5007951;28;20045;-58
2023/04/08 10:40:40;;;;;;;18.48;9.93;;;;;;;;;;5007862;28;20049;-59
2023/04/08 10:43:06;;;;;;;18.75;10.32;;;;;;;;;;5006681;28;20042;-59
2023/04/08 10:45:33;;;;;;;19.90;9.77;;;;;;;;;;5007895;28;20042;-58
2023/04/08 10:48:16;;;;;;;15.88;9.70;;;;;;;;;;5007137;28;20038;-58
2023/04/08 10:50:43;;;;;;;14.95;9.80;;;;;;;;;;5006435;28;20057;-58
2023/04/08 10:53:10;;;;;;;19.45;11.60;;;;;;;;;;5006546;28;20042;-58
2023/04/08 10:55:36;;;;;;;18.15;10.20;;;;;;;;;;5007052;28;20120;-58
2023/04/08 10:58:10;;;;;;;18.15;11.23;;;;;;;;;;5005076;28;20050;-58
2023/04/08 11:00:37;;;;;;;19.00;11.50;;;;;;;;;;5000599;28;20602;-58
2023/04/08 11:03:04;;;;;;;17.08;10.43;;;;;;;;;;5006814;28;20045;-58
2023/04/08 11:05:31;;;;;;;16.52;9.95;;;;;;;;;;5004950;28;20729;-58
2023/04/08 11:07:59;;;;;;;14.52;8.93;;;;;;;;;;4999473;28;20057;-59
2023/04/08 11:10:25;;;;;;;16.97;9.90;;;;;;;;;;5007132;28;20037;-58
2023/04/08 11:12:53;;;;;;;15.02;9.45;;;;;;;;;;5005720;28;20336;-58
2023/04/08 11:15:19;;;;;;;14.75;8.00;;;;;;;;;;5004923;28;20045;-59
2023/04/08 11:17:47;;;;;;;14.40;8.60;;;;;;;;;;5006085;28;20124;-58
2023/04/08 11:20:13;;;;;;;13.90;8.60;;;;;;;;;;5002026;28;20496;-58
2023/04/08 11:22:39;;;;;;;14.65;8.85;;;;;;;;;;5005989;28;20416;-58
2023/04/08 11:25:08;;;;;;;13.40;8.20;;;;;;;;;;5006126;28;20128;-58
2023/04/08 11:27:35;;;;;;;13.18;7.00;;;;;;;;;;5005408;28;20100;-59
2023/04/08 11:30:02;;;;;;;12.98;7.90;;;;;;;;;;5006255;28;20483;-58
2023/04/08 11:32:28;;;;;;;12.63;8.18;;;;;;;;;;5000681;28;20435;-58
2023/04/08 11:34:54;;;;;;;15.63;8.60;;;;;;;;;;5006361;28;20539;-58
2023/04/08 11:37:21;;;;;;;13.30;7.85;;;;;;;;;;5005899;28;20062;-58
2023/04/08 11:39:47;;;;;;;12.85;7.78;;;;;;;;;;5005779;28;20050;-58
2023/04/08 11:42:26;;;;;;;11.02;6.95;;;;;;;;;;5004930;28;20471;-58
2023/04/08 11:44:52;;;;;;;13.95;7.13;;;;;;;;;;5003964;28;20050;-58
2023/04/08 11:47:18;;;;;;;11.25;6.93;;;;;;;;;;5004919;28;20064;-58
2023/04/08 11:49:45;;;;;;;13.10;6.93;;;;;;;;;;5005565;28;20052;-58
2023/04/08 11:52:11;;;;;;;13.13;7.65;;;;;;;;;;5006223;28;20135;-58
2023/04/08 11:54:40;;;;;;;14.30;7.53;;;;;;;;;;5005579;28;20472;-58
2023/04/08 11:57:08;;;;;;;12.40;7.93;;;;;;;;;;5005362;28;20038;-59
2023/04/08 11:59:35;;;;;;;10.77;6.97;;;;;;;;;;5000197;28;20113;-58
2023/04/08 12:02:02;;;;;;;12.23;7.75;;;;;;;;;;5005092;28;20045;-58
2023/04/08 12:04:28;;;;;;;14.15;7.72;;;;;;;;;;5004607;28;20101;-58
2023/04/08 12:06:55;;;;;;;12.02;6.95;;;;;;;;;;5005895;28;20596;-58
2023/04/08 12:09:21;;;;;;;12.90;7.07;;;;;;;;;;5005444;28;20487;-58
2023/04/08 12:11:47;;;;;;;14.80;7.95;;;;;;;;;;5004730;28;20078;-58
2023/04/08 12:14:14;;;;;;;15.63;8.02;;;;;;;;;;5004880;28;20506;-58
2023/04/08 12:16:40;;;;;;;14.55;8.13;;;;;;;;;;5005360;28;20052;-58
2023/04/08 12:19:06;;;;;;;14.95;8.02;;;;;;;;;;5004975;28;20934;-58
2023/04/08 12:21:33;;;;;;;14.70;8.77;;;;;;;;;;5005689;28;20037;-58
2023/04/08 12:23:59;;;;;;;24.42;13.43;;;;;;;;;;5004424;28;20104;-59
2023/04/08 12:26:26;;;;;;;27.65;14.35;;;;;;;;;;5005173;28;20088;-58
2023/04/08 12:28:52;;;;;;;34.65;18.88;;;;;;;;;;5003863;28;20057;-58
2023/04/08 12:31:18;;;;;;;24.77;11.05;;;;;;;;;;5005389;28;20117;-59
2023/04/08 12:33:44;;;;;;;20.33;10.77;;;;;;;;;;5004965;28;20046;-58
2023/04/08 12:36:10;;;;;;;19.48;10.73;;;;;;;;;;5005251;28;20042;-58
2023/04/08 12:38:37;;;;;;;28.30;14.57;;;;;;;;;;5004005;28;20050;-57
2023/04/08 12:41:03;;;;;;;20.15;10.98;;;;;;;;;;5004340;28;20042;-59
2023/04/08 12:43:31;;;;;;;23.20;11.48;;;;;;;;;;5003857;28;20046;-59
2023/04/08 12:45:57;;;;;;;23.63;11.73;;;;;;;;;;5005398;28;20086;-60
2023/04/08 12:48:23;;;;;;;22.52;11.98;;;;;;;;;;5005134;28;20410;-60
2023/04/08 12:50:50;;;;;;;25.23;11.95;;;;;;;;;;5003588;28;20055;-59
2023/04/08 12:53:16;;;;;;;28.02;13.10;;;;;;;;;;5004349;28;20124;-59
2023/04/08 12:55:42;;;;;;;28.23;13.25;;;;;;;;;;5004038;28;20081;-59
2023/04/08 12:58:08;;;;;;;25.38;12.80;;;;;;;;;;5006371;28;20037;-58
2023/04/08 13:00:37;;;;;;;27.98;13.43;;;;;;;;;;5004568;28;20092;-58
2023/04/08 13:03:05;;;;;;;35.03;17.95;;;;;;;;;;5004701;28;20400;-57
2023/04/08 13:05:31;;;;;;;35.75;18.92;;;;;;;;;;5003904;28;20068;-57
2023/04/08 13:07:57;;;;;;;50.90;25.58;;;;;;;;;;5000482;28;20081;-58
2023/04/08 13:10:24;;;;;;;26.67;14.02;;;;;;;;;;5004689;28;20046;-57
2023/04/08 13:12:50;;;;;;;35.65;18.13;;;;;;;;;;5003927;28;20082;-60
2023/04/08 13:15:17;;;;;;;28.42;14.45;;;;;;;;;;5004725;28;20767;-59
2023/04/08 13:17:44;;;;;;;26.88;15.35;;;;;;;;;;5004669;28;20030;-59
2023/04/08 13:20:10;;;;;;;38.42;23.05;;;;;;;;;;5004096;28;20057;-60
2023/04/08 13:22:36;;;;;;;38.17;21.35;;;;;;;;;;5003920;28;20038;-60
2023/04/08 13:25:05;;;;;;;38.17;19.70;;;;;;;;;;5004607;28;20042;-59
2023/04/08 13:27:31;;;;;;;31.95;18.50;;;;;;;;;;5003549;28;20061;-59
2023/04/08 13:29:57;;;;;;;31.88;17.75;;;;;;;;;;5006555;28;20100;-62
2023/04/08 13:32:23;;;;;;;36.88;20.27;;;;;;;;;;5004985;28;20049;-59
2023/04/08 13:34:49;;;;;;;31.08;16.73;;;;;;;;;;5004175;28;20096;-59
2023/04/08 13:37:15;;;;;;;36.50;21.77;;;;;;;;;;4997798;28;20447;-59
2023/04/08 13:39:42;;;;;;;33.67;19.65;;;;;;;;;;4995690;28;20153;-59
2023/04/08 13:42:08;;;;;;;36.45;19.63;;;;;;;;;;5002721;28;20037;-59
2023/04/08 13:44:34;;;;;;;32.40;15.93;;;;;;;;;;5004238;28;20050;-59
2023/04/08 13:47:00;;;;;;;40.15;19.92;;;;;;;;;;5002225;28;20522;-59
2023/04/08 13:49:27;;;;;;;38.08;19.77;;;;;;;;;;5002215;28;20069;-59
2023/04/08 13:51:53;;;;;;;33.03;16.33;;;;;;;;;;5004862;28;20061;-59
2023/04/08 13:54:19;;;;;;;37.35;16.70;;;;;;;;;;5004550;28;20038;-59
2023/04/08 13:56:46;;;;;;;36.60;17.55;;;;;;;;;;5003217;28;20041;-59
2023/04/08 13:59:12;;;;;;;34.78;16.77;;;;;;;;;;5000408;28;20057;-59
2023/04/08 14:01:39;;;;;;;39.85;17.45;;;;;;;;;;5004070;28;20049;-60
2023/04/08 14:04:06;;;;;;;35.40;17.40;;;;;;;;;;5005888;28;20096;-59
2023/04/08 14:06:34;;;;;;;33.90;18.27;;;;;;;;;;4997800;28;20112;-59
2023/04/08 14:09:01;;;;;;;42.63;24.08;;;;;;;;;;5004577;28;20041;-59
2023/04/08 14:11:27;;;;;;;36.58;19.55;;;;;;;;;;5003633;28;20116;-61
2023/04/08 14:13:53;;;;;;;36.55;17.48;;;;;;;;;;5004726;28;20058;-59
2023/04/08 14:16:20;;;;;;;40.45;18.75;;;;;;;;;;5004572;28;20046;-59
2023/04/08 14:18:46;;;;;;;35.95;16.67;;;;;;;;;;5004344;28;20139;-60
2023/04/08 14:21:14;;;;;;;52.25;31.75;;;;;;;;;;4990234;28;20057;-60
2023/04/08 14:23:41;;;;;;;40.05;19.70;;;;;;;;;;5002996;28;20050;-60